Time;durP1;ratioP1;P1;durP2;ratioP2;P2;SDS_P1;SDS_P2;PMS_P1;PMS_P2;Temp;Humidity;BMP_temperature;BMP_pressure;BME280_temperature;BME280_humidity;BME280_pressure;Samples;Min_cycle;Max_cycle;Signal;HPM_P1;HPM_P2
2022/03/09 00:02:14;;;;;;;;;;;8.80;99.90;;;;;;5054077;28;19913;-78
2022/03/09 00:04:40;;;;;;;;;;;8.70;99.90;;;;;;5053710;28;20284;-78
2022/03/09 00:07:06;;;;;;;;;;;8.70;99.90;;;;;;5053744;28;19908;-78
2022/03/09 00:09:31;;;;;;;;;;;8.70;99.90;;;;;;5053579;28;19916;-78
2022/03/09 00:11:57;;;;;;;;;;;8.80;99.90;;;;;;5052183;28;19920;-78
2022/03/09 00:14:22;;;;;;;;;;;8.80;99.90;;;;;;5052493;28;20399;-78
2022/03/09 00:16:48;;;;;;;;;;;8.90;99.90;;;;;;5053480;28;19912;-78
2022/03/09 00:19:14;;;;;;;;;;;8.90;99.90;;;;;;5053745;28;19909;-78
2022/03/09 00:21:39;;;;;;;;;;;8.80;99.90;;;;;;5053433;28;19958;-78
2022/03/09 00:24:05;;;;;;;;;;;8.80;99.90;;;;;;5053857;28;19913;-78
2022/03/09 00:26:31;;;;;;;;;;;8.70;99.90;;;;;;5053343;28;20368;-78
2022/03/09 00:28:56;;;;;;;;;;;8.80;99.90;;;;;;5053361;28;19912;-78
2022/03/09 00:31:22;;;;;;;;;;;8.80;99.90;;;;;;5053425;28;19913;-78
2022/03/09 00:33:48;;;;;;;;;;;8.80;99.90;;;;;;5053316;28;19909;-78
2022/03/09 00:36:13;;;;;;;;;;;8.80;99.90;;;;;;5053322;28;19909;-78
2022/03/09 00:38:39;;;;;;;;;;;8.70;99.90;;;;;;5052875;28;19921;-78
2022/03/09 00:41:04;;;;;;;;;;;8.70;99.90;;;;;;5056549;28;19970;-78
2022/03/09 01:01:49;;;;;;;;;;;8.40;99.90;;;;;;5056516;28;19978;-78
2022/03/09 01:04:14;;;;;;;;;;;8.30;99.90;;;;;;5057017;28;20369;-78
2022/03/09 01:06:40;;;;;;;;;;;8.50;99.90;;;;;;5056748;28;19909;-78
2022/03/09 01:09:06;;;;;;;;;;;8.50;99.90;;;;;;5056677;28;20007;-78
2022/03/09 01:11:31;;;;;;;;;;;8.40;99.90;;;;;;5055313;28;19920;-78
2022/03/09 01:13:57;;;;;;;;;;;8.50;99.90;;;;;;5056606;28;19944;-78
2022/03/09 01:16:23;;;;;;;;;;;8.40;99.90;;;;;;5056635;28;19963;-78
2022/03/09 01:18:48;;;;;;;;;;;8.40;99.90;;;;;;5056506;28;19909;-78
2022/03/09 01:21:14;;;;;;;;;;;8.40;99.90;;;;;;5056637;28;19916;-78
2022/03/09 01:23:39;;;;;;;;;;;8.40;99.90;;;;;;5056768;28;19958;-78
2022/03/09 01:26:05;;;;;;;;;;;8.50;99.90;;;;;;5056366;28;20292;-78
2022/03/09 01:28:30;;;;;;;;;;;8.40;99.90;;;;;;5054989;28;19909;-78
2022/03/09 01:30:56;;;;;;;;;;;8.50;99.90;;;;;;5056214;28;20000;-78
2022/03/09 01:33:22;;;;;;;;;;;8.50;99.90;;;;;;5056453;28;20346;-78
2022/03/09 01:35:48;;;;;;;;;;;8.50;99.90;;;;;;5056211;28;19909;-78
2022/03/09 01:38:13;;;;;;;;;;;8.50;99.90;;;;;;5055913;28;20008;-78
2022/03/09 01:40:39;;;;;;;;;;;8.50;99.90;;;;;;5055051;28;19908;-78
2022/03/09 01:43:04;;;;;;;;;;;8.40;99.90;;;;;;5056541;28;19913;-78
2022/03/09 01:45:31;;;;;;;;;;;8.50;99.90;;;;;;5056023;28;19908;-78
2022/03/09 01:47:56;;;;;;;;;;;8.40;99.90;;;;;;5056263;28;19909;-78
2022/03/09 01:50:22;;;;;;;;;;;8.50;99.90;;;;;;5055794;28;20420;-78
2022/03/09 01:52:47;;;;;;;;;;;8.50;99.90;;;;;;5055854;28;19909;-78
2022/03/09 01:55:13;;;;;;;;;;;8.60;99.90;;;;;;5055773;28;20368;-78
2022/03/09 01:57:41;;;;;;;;;;;8.50;99.90;;;;;;5055789;28;20304;-78
2022/03/09 02:00:07;;;;;;;;;;;8.60;99.90;;;;;;5054456;28;20360;-78
2022/03/09 02:02:32;;;;;;;;;;;8.60;99.90;;;;;;5054396;28;19909;-78
2022/03/09 02:04:58;;;;;;;;;;;8.60;99.90;;;;;;5054364;28;19916;-78
2022/03/09 02:09:41;;;;;;;;;;;8.60;99.90;;;;;;5055985;28;19909;-78
2022/03/09 02:10:10;;;;;;;;;;;8.60;99.90;;;;;;5055062;28;19909;-78
2022/03/09 02:12:36;;;;;;;;;;;8.60;99.90;;;;;;5055756;28;20007;-78
2022/03/09 02:15:02;;;;;;;;;;;8.50;99.90;;;;;;5055423;28;19912;-78
2022/03/09 02:17:28;;;;;;;;;;;8.50;99.90;;;;;;5054165;28;19909;-78
2022/03/09 02:19:55;;;;;;;;;;;8.40;99.90;;;;;;5055375;28;20000;-78
2022/03/09 02:22:23;;;;;;;;;;;8.40;99.90;;;;;;5055385;28;19932;-78
2022/03/09 02:24:50;;;;;;;;;;;8.30;99.90;;;;;;5055391;28;20007;-78
2022/03/09 02:27:15;;;;;;;;;;;8.30;99.90;;;;;;5055209;28;19913;-78
2022/03/09 02:29:41;;;;;;;;;;;8.30;99.90;;;;;;5053930;28;20315;-78
2022/03/09 02:32:07;;;;;;;;;;;8.30;99.90;;;;;;5055077;28;19912;-78
2022/03/09 02:34:32;;;;;;;;;;;8.20;99.90;;;;;;5055078;28;19916;-78
2022/03/09 02:36:58;;;;;;;;;;;8.10;99.90;;;;;;5054829;28;19978;-78
2022/03/09 02:39:24;;;;;;;;;;;8.30;99.90;;;;;;5053663;28;19909;-78
2022/03/09 02:41:50;;;;;;;;;;;8.30;99.90;;;;;;5055106;28;19944;-78
2022/03/09 02:44:15;;;;;;;;;;;8.20;99.90;;;;;;5054868;28;20277;-78
2022/03/09 02:46:41;;;;;;;;;;;8.30;99.90;;;;;;5054905;28;20136;-78
2022/03/09 02:49:07;;;;;;;;;;;8.30;99.90;;;;;;5054757;28;19909;-78
2022/03/09 02:51:32;;;;;;;;;;;8.40;99.90;;;;;;5054640;28;19913;-78
2022/03/09 02:53:58;;;;;;;;;;;8.50;99.90;;;;;;5054752;28;19997;-78
2022/03/09 02:56:24;;;;;;;;;;;8.60;99.90;;;;;;5054721;28;19916;-78
2022/03/09 02:58:49;;;;;;;;;;;8.50;99.90;;;;;;5054651;28;19916;-78
2022/03/09 03:01:15;;;;;;;;;;;8.30;99.90;;;;;;5053304;28;19913;-78
2022/03/09 03:03:41;;;;;;;;;;;8.30;99.90;;;;;;5054155;28;19909;-78
2022/03/09 03:06:07;;;;;;;;;;;8.30;99.90;;;;;;5054486;28;20281;-78
2022/03/09 03:08:33;;;;;;;;;;;8.20;99.90;;;;;;5054665;28;20336;-78
2022/03/09 03:10:59;;;;;;;;;;;8.20;99.90;;;;;;5054277;28;20007;-78
2022/03/09 03:13:25;;;;;;;;;;;8.30;99.90;;;;;;5054325;28;20297;-78
2022/03/09 03:15:50;;;;;;;;;;;8.30;99.90;;;;;;5054622;28;19909;-78
2022/03/09 03:18:16;;;;;;;;;;;8.20;99.90;;;;;;5054395;28;19909;-78
2022/03/09 03:20:42;;;;;;;;;;;8.10;99.90;;;;;;5054162;28;20314;-78
2022/03/09 03:23:07;;;;;;;;;;;8.10;99.90;;;;;;5054197;28;19909;-78
2022/03/09 03:25:33;;;;;;;;;;;8.10;99.90;;;;;;5052848;28;19909;-78
2022/03/09 03:27:58;;;;;;;;;;;8.10;99.90;;;;;;5054084;28;19940;-78
2022/03/09 03:30:24;;;;;;;;;;;8.20;99.90;;;;;;5053960;28;20284;-78
2022/03/09 03:32:50;;;;;;;;;;;8.20;99.90;;;;;;5054014;28;19909;-78
2022/03/09 03:35:15;;;;;;;;;;;8.20;99.90;;;;;;5054153;28;19912;-78
2022/03/09 03:37:41;;;;;;;;;;;8.20;99.90;;;;;;5054075;28;19921;-78
2022/03/09 03:40:07;;;;;;;;;;;8.10;99.90;;;;;;5053948;28;19909;-78
2022/03/09 03:42:32;;;;;;;;;;;8.20;99.90;;;;;;5053883;28;19916;-78
2022/03/09 03:44:58;;;;;;;;;;;8.20;99.90;;;;;;5054880;28;19913;-78
2022/03/09 03:47:24;;;;;;;;;;;8.30;99.90;;;;;;5053819;28;20328;-78
2022/03/09 03:49:49;;;;;;;;;;;8.30;99.90;;;;;;5052502;28;19908;-78
2022/03/09 03:52:15;;;;;;;;;;;8.30;99.90;;;;;;5052157;28;19939;-78
2022/03/09 03:54:41;;;;;;;;;;;8.40;99.90;;;;;;5053742;28;19959;-78
2022/03/09 03:57:06;;;;;;;;;;;8.30;99.90;;;;;;5053698;28;19908;-78
2022/03/09 03:59:32;;;;;;;;;;;8.30;99.90;;;;;;5053647;28;19920;-78
2022/03/09 04:01:59;;;;;;;;;;;8.30;99.90;;;;;;5053869;28;20042;-78
2022/03/09 04:04:24;;;;;;;;;;;8.20;99.90;;;;;;5053712;28;19909;-78
2022/03/09 04:06:50;;;;;;;;;;;8.20;99.90;;;;;;5053572;28;19916;-78
2022/03/09 04:09:16;;;;;;;;;;;8.20;99.90;;;;;;5053771;28;19909;-78
2022/03/09 04:11:41;;;;;;;;;;;8.30;99.90;;;;;;5053695;28;20391;-78
2022/03/09 04:14:07;;;;;;;;;;;8.30;99.90;;;;;;5053702;28;20406;-78
2022/03/09 04:16:33;;;;;;;;;;;8.40;99.90;;;;;;5057684;28;19916;-78
2022/03/09 04:18:58;;;;;;;;;;;8.40;99.90;;;;;;5058251;28;19909;-78
2022/03/09 04:21:24;;;;;;;;;;;8.40;99.90;;;;;;5057583;28;19916;-78
2022/03/09 04:23:49;;;;;;;;;;;8.50;99.90;;;;;;5057556;28;20288;-78
2022/03/09 04:26:15;;;;;;;;;;;8.50;99.90;;;;;;5057826;28;19913;-78
2022/03/09 04:28:41;;;;;;;;;;;8.50;99.90;;;;;;5057661;28;19908;-78
2022/03/09 04:31:06;;;;;;;;;;;8.50;99.90;;;;;;5057355;28;19999;-78
2022/03/09 04:33:32;;;;;;;;;;;8.50;99.90;;;;;;5057367;28;20283;-78
2022/03/09 04:35:57;;;;;;;;;;;8.50;99.90;;;;;;5056073;28;20292;-78
2022/03/09 04:38:23;;;;;;;;;;;8.40;99.90;;;;;;5057123;28;19921;-78
2022/03/09 04:40:49;;;;;;;;;;;8.40;99.90;;;;;;5057523;28;19909;-78
2022/03/09 04:43:14;;;;;;;;;;;8.50;99.90;;;;;;5057284;28;19940;-78
2022/03/09 04:45:40;;;;;;;;;;;8.40;99.90;;;;;;5057155;28;19909;-78
2022/03/09 04:48:05;;;;;;;;;;;8.50;99.90;;;;;;5057134;28;19912;-78
2022/03/09 04:50:31;;;;;;;;;;;8.50;99.90;;;;;;5057161;28;19912;-78
2022/03/09 04:52:56;;;;;;;;;;;8.50;99.90;;;;;;5057121;28;20436;-78
2022/03/09 04:55:22;;;;;;;;;;;8.60;99.90;;;;;;5056933;28;19909;-78
2022/03/09 04:57:47;;;;;;;;;;;8.60;99.90;;;;;;5055655;28;19909;-78
2022/03/09 05:00:13;;;;;;;;;;;8.40;99.90;;;;;;5055633;28;19909;-78
2022/03/09 05:02:39;;;;;;;;;;;8.40;99.90;;;;;;5055518;28;20372;-78
2022/03/09 05:05:05;;;;;;;;;;;8.40;99.90;;;;;;5056795;28;19915;-78
2022/03/09 05:07:30;;;;;;;;;;;8.40;99.90;;;;;;5056972;28;19995;-78
2022/03/09 05:09:56;;;;;;;;;;;8.40;99.90;;;;;;5056682;28;19955;-78
2022/03/09 05:12:22;;;;;;;;;;;8.30;99.90;;;;;;5056578;28;19948;-78
2022/03/09 05:14:47;;;;;;;;;;;8.30;99.90;;;;;;5056817;28;19986;-78
2022/03/09 05:17:13;;;;;;;;;;;8.40;99.90;;;;;;5056340;28;19919;-78
2022/03/09 05:19:39;;;;;;;;;;;8.40;99.90;;;;;;5056728;28;20373;-78
2022/03/09 05:22:04;;;;;;;;;;;8.40;99.90;;;;;;5055181;28;19909;-78
2022/03/09 05:24:30;;;;;;;;;;;8.40;99.90;;;;;;5056454;28;19909;-78
2022/03/09 05:26:55;;;;;;;;;;;8.50;99.90;;;;;;5055893;28;20347;-78
2022/03/09 05:29:21;;;;;;;;;;;8.40;99.90;;;;;;5056294;28;20344;-78
2022/03/09 05:31:47;;;;;;;;;;;8.40;99.90;;;;;;5056211;28;20323;-78
2022/03/09 05:34:13;;;;;;;;;;;8.40;99.90;;;;;;5056337;28;19909;-78
2022/03/09 05:36:39;;;;;;;;;;;8.60;99.90;;;;;;5056025;28;20479;-78
2022/03/09 05:39:05;;;;;;;;;;;8.60;99.90;;;;;;5056391;28;19908;-78
2022/03/09 05:41:31;;;;;;;;;;;8.60;99.90;;;;;;5056264;28;19915;-78
2022/03/09 05:43:57;;;;;;;;;;;8.60;99.90;;;;;;5056244;28;19909;-78
2022/03/09 05:46:23;;;;;;;;;;;8.60;99.90;;;;;;5056000;28;19909;-78
2022/03/09 05:48:48;;;;;;;;;;;8.60;99.90;;;;;;5054685;28;20392;-78
2022/03/09 05:51:14;;;;;;;;;;;8.60;99.90;;;;;;5055976;28;19935;-78
2022/03/09 05:53:39;;;;;;;;;;;8.60;99.90;;;;;;5055807;28;19987;-78
2022/03/09 05:56:05;;;;;;;;;;;8.60;99.90;;;;;;5054556;28;19913;-78
2022/03/09 05:58:31;;;;;;;;;;;8.50;99.90;;;;;;5054485;28;20000;-78
2022/03/09 06:00:57;;;;;;;;;;;8.50;99.90;;;;;;5054461;28;20415;-78
2022/03/09 06:03:22;;;;;;;;;;;8.50;99.90;;;;;;5054424;28;20361;-78
2022/03/09 06:05:48;;;;;;;;;;;8.50;99.90;;;;;;5054393;28;19909;-78
2022/03/09 06:08:14;;;;;;;;;;;8.50;99.90;;;;;;5055620;28;20003;-78
2022/03/09 06:10:39;;;;;;;;;;;8.50;99.90;;;;;;5055715;28;19913;-78
2022/03/09 06:13:05;;;;;;;;;;;8.60;99.90;;;;;;5055801;28;19920;-78
2022/03/09 06:15:30;;;;;;;;;;;8.50;99.90;;;;;;5055642;28;19909;-78
2022/03/09 06:17:56;;;;;;;;;;;8.50;99.90;;;;;;5055502;28;19909;-78
2022/03/09 06:20:22;;;;;;;;;;;8.50;99.90;;;;;;5055367;28;20293;-78
2022/03/09 06:22:48;;;;;;;;;;;8.50;99.90;;;;;;5055480;28;19915;-78
2022/03/09 06:25:14;;;;;;;;;;;8.50;99.90;;;;;;5055395;28;19909;-78
2022/03/09 06:27:40;;;;;;;;;;;8.40;99.90;;;;;;5055314;28;20372;-78
2022/03/09 06:30:06;;;;;;;;;;;8.50;99.90;;;;;;5055211;28;19913;-78
2022/03/09 06:32:32;;;;;;;;;;;8.50;99.90;;;;;;5055233;28;19913;-78
2022/03/09 06:34:58;;;;;;;;;;;8.50;99.90;;;;;;5055058;28;19958;-78
2022/03/09 06:37:23;;;;;;;;;;;8.50;99.90;;;;;;5053998;28;19928;-78
2022/03/09 06:39:49;;;;;;;;;;;8.40;99.90;;;;;;5055052;28;19944;-78
2022/03/09 06:42:14;;;;;;;;;;;8.40;99.90;;;;;;5053694;28;19916;-78
2022/03/09 06:44:40;;;;;;;;;;;8.50;99.90;;;;;;5053624;28;19909;-78
2022/03/09 06:47:05;;;;;;;;;;;8.50;99.90;;;;;;5053545;28;19919;-78
2022/03/09 06:49:31;;;;;;;;;;;8.50;99.90;;;;;;5054826;28;19959;-78
2022/03/09 06:51:56;;;;;;;;;;;8.60;99.90;;;;;;5054671;28;19917;-78
2022/03/09 06:54:23;;;;;;;;;;;8.50;99.90;;;;;;5054759;28;19916;-78
2022/03/09 06:56:51;;;;;;;;;;;8.50;99.90;;;;;;5054610;28;19909;-78
2022/03/09 06:59:17;;;;;;;;;;;8.50;99.90;;;;;;5054560;28;19917;-77
2022/03/09 07:01:42;;;;;;;;;;;8.50;99.90;;;;;;5054759;28;19909;-78
2022/03/09 07:04:08;;;;;;;;;;;8.50;99.90;;;;;;5054871;28;19909;-78
2022/03/09 07:06:33;;;;;;;;;;;8.50;99.90;;;;;;5054514;28;19913;-78
2022/03/09 07:08:59;;;;;;;;;;;8.50;99.90;;;;;;5053136;28;19918;-78
2022/03/09 07:11:25;;;;;;;;;;;8.50;99.90;;;;;;5054430;28;19917;-78
2022/03/09 07:13:50;;;;;;;;;;;8.50;99.90;;;;;;5054391;28;20376;-78
2022/03/09 07:16:16;;;;;;;;;;;8.60;99.90;;;;;;5053059;28;19920;-78
2022/03/09 07:18:41;;;;;;;;;;;8.60;99.90;;;;;;5054506;28;19945;-78
2022/03/09 07:21:07;;;;;;;;;;;8.70;99.90;;;;;;5054257;28;19916;-78
2022/03/09 07:23:32;;;;;;;;;;;8.70;99.90;;;;;;5054199;28;19909;-78
2022/03/09 07:25:58;;;;;;;;;;;8.70;99.90;;;;;;5052851;28;20334;-78
2022/03/09 07:28:24;;;;;;;;;;;8.70;99.90;;;;;;5054331;28;19933;-78
2022/03/09 07:30:49;;;;;;;;;;;8.70;99.90;;;;;;5054289;28;20003;-78
2022/03/09 07:33:15;;;;;;;;;;;8.80;99.90;;;;;;5054102;28;19909;-78
2022/03/09 07:35:41;;;;;;;;;;;8.70;99.90;;;;;;5053986;28;20277;-78
2022/03/09 07:38:10;;;;;;;;;;;8.80;99.90;;;;;;5053857;28;19967;-78
2022/03/09 07:40:35;;;;;;;;;;;8.80;99.90;;;;;;5053903;28;20076;-78
2022/03/09 07:43:01;;;;;;;;;;;8.90;99.90;;;;;;5054067;28;19999;-78
2022/03/09 07:45:26;;;;;;;;;;;9.00;99.90;;;;;;5052518;28;19909;-78
2022/03/09 07:47:52;;;;;;;;;;;9.10;99.90;;;;;;5053804;28;19909;-78
2022/03/09 07:50:17;;;;;;;;;;;9.20;99.90;;;;;;5053781;28;19909;-78
2022/03/09 07:52:43;;;;;;;;;;;9.20;99.90;;;;;;5054067;28;19936;-78
2022/03/09 07:55:09;;;;;;;;;;;9.20;99.90;;;;;;5052377;28;19909;-78
2022/03/09 07:57:35;;;;;;;;;;;9.10;99.90;;;;;;5053712;28;19935;-78
2022/03/09 08:00:00;;;;;;;;;;;9.20;99.90;;;;;;5054107;28;19909;-78
2022/03/09 08:02:26;;;;;;;;;;;9.30;99.90;;;;;;5053627;28;19912;-78
2022/03/09 08:04:52;;;;;;;;;;;9.30;99.90;;;;;;5053579;28;19909;-78
2022/03/09 08:07:17;;;;;;;;;;;9.50;99.90;;;;;;5053592;28;19916;-78
2022/03/09 08:09:43;;;;;;;;;;;9.50;99.90;;;;;;5052357;28;19909;-78
2022/03/09 08:12:11;;;;;;;;;;;9.50;99.90;;;;;;5053559;28;20381;-78
2022/03/09 08:14:37;;;;;;;;;;;9.60;99.90;;;;;;5052212;28;19913;-78
2022/03/09 08:17:03;;;;;;;;;;;9.70;99.90;;;;;;5053578;28;19909;-78
2022/03/09 08:19:29;;;;;;;;;;;9.60;99.90;;;;;;5052217;28;19916;-78
2022/03/09 08:21:55;;;;;;;;;;;9.60;99.90;;;;;;5053404;28;20411;-78
2022/03/09 08:24:20;;;;;;;;;;;9.70;99.90;;;;;;5053427;28;19958;-78
2022/03/09 08:26:46;;;;;;;;;;;9.80;99.90;;;;;;5053799;28;19920;-78
2022/03/09 08:29:12;;;;;;;;;;;9.80;99.90;;;;;;5053519;28;20261;-78
2022/03/09 08:31:37;;;;;;;;;;;9.70;99.90;;;;;;5053308;28;20391;-78
2022/03/09 08:34:03;;;;;;;;;;;9.80;99.90;;;;;;5053580;28;19909;-78
2022/03/09 08:36:28;;;;;;;;;;;10.00;99.90;;;;;;5053516;28;19909;-78
2022/03/09 08:38:55;;;;;;;;;;;10.20;99.90;;;;;;5052901;28;19921;-78
2022/03/09 08:41:24;;;;;;;;;;;10.30;99.90;;;;;;5053262;28;20380;-78
2022/03/09 08:43:50;;;;;;;;;;;10.40;99.90;;;;;;5053302;28;19915;-78
2022/03/09 08:46:15;;;;;;;;;;;10.50;99.90;;;;;;5053288;28;19995;-78
2022/03/09 08:48:41;;;;;;;;;;;10.70;99.90;;;;;;5053254;28;19951;-78
2022/03/09 08:51:07;;;;;;;;;;;10.80;99.90;;;;;;5053094;28;20368;-78
2022/03/09 08:53:33;;;;;;;;;;;11.70;99.90;;;;;;5053063;28;19908;-78
2022/03/09 08:55:59;;;;;;;;;;;11.90;99.90;;;;;;5053363;28;19908;-78
2022/03/09 08:58:25;;;;;;;;;;;12.00;99.90;;;;;;5053158;28;20003;-78
2022/03/09 09:00:50;;;;;;;;;;;12.30;99.90;;;;;;5054309;28;19909;-78
2022/03/09 09:03:16;;;;;;;;;;;12.50;99.90;;;;;;5056862;28;20265;-78
2022/03/09 09:05:41;;;;;;;;;;;12.20;99.90;;;;;;5055512;28;19908;-78
2022/03/09 09:08:07;;;;;;;;;;;12.10;99.90;;;;;;5056777;28;19909;-78
2022/03/09 09:10:34;;;;;;;;;;;12.60;99.90;;;;;;5055354;28;19909;-78
2022/03/09 09:12:59;;;;;;;;;;;13.10;99.90;;;;;;5056686;28;19931;-78
2022/03/09 09:15:25;;;;;;;;;;;13.70;99.90;;;;;;5056679;28;20376;-78
2022/03/09 09:18:04;;;;;;;;;;;14.00;99.90;;;;;;5056696;28;19954;-78
2022/03/09 09:20:29;;;;;;;;;;;13.40;99.90;;;;;;5055231;28;19916;-79
2022/03/09 09:22:55;;;;;;;;;;;13.90;99.90;;;;;;5056693;28;20361;-78
2022/03/09 09:25:23;;;;;;;;;;;14.10;99.90;;;;;;5055115;28;20426;-79
2022/03/09 09:27:49;;;;;;;;;;;15.90;99.90;;;;;;5056565;28;19909;-78
2022/03/09 09:30:15;;;;;;;;;;;13.70;99.90;;;;;;5056304;28;19913;-78
2022/03/09 09:32:41;;;;;;;;;;;13.60;99.90;;;;;;5055020;28;20323;-78
2022/03/09 09:35:06;;;;;;;;;;;13.00;99.90;;;;;;5056212;28;19909;-78
2022/03/09 09:37:32;;;;;;;;;;;13.10;99.90;;;;;;5056023;28;19920;-78
2022/03/09 09:39:58;;;;;;;;;;;14.10;99.90;;;;;;5056242;28;19909;-78
2022/03/09 09:42:30;;;;;;;;;;;13.80;99.90;;;;;;5056097;28;19968;-78
2022/03/09 09:44:57;;;;;;;;;;;12.90;99.90;;;;;;5056062;28;19912;-78
2022/03/09 09:47:23;;;;;;;;;;;12.80;99.90;;;;;;5056256;28;19915;-78
2022/03/09 09:49:49;;;;;;;;;;;12.90;99.90;;;;;;5054700;28;19909;-79
2022/03/09 09:52:15;;;;;;;;;;;13.40;99.90;;;;;;5054577;28;19913;-78
2022/03/09 09:54:41;;;;;;;;;;;14.30;99.90;;;;;;5055867;28;19919;-78
2022/03/09 09:57:11;;;;;;;;;;;13.80;99.90;;;;;;5055879;28;19944;-78
2022/03/09 09:59:36;;;;;;;;;;;13.50;99.90;;;;;;5056053;28;19952;-78
2022/03/09 10:02:05;;;;;;;;;;;13.20;99.90;;;;;;5056025;28;19944;-79
2022/03/09 10:04:30;;;;;;;;;;;16.50;99.90;;;;;;5055993;28;19915;-79
2022/03/09 10:06:57;;;;;;;;;;;15.30;99.90;;;;;;5054394;28;19913;-79
2022/03/09 10:09:22;;;;;;;;;;;16.70;99.90;;;;;;5055644;28;19932;-79
2022/03/09 10:11:52;;;;;;;;;;;17.60;99.90;;;;;;5055548;28;20376;-80
2022/03/09 10:14:37;;;;;;;;;;;18.60;99.90;;;;;;5055702;28;19955;-79
2022/03/09 10:17:05;;;;;;;;;;;16.60;99.90;;;;;;5055361;28;19916;-79
2022/03/09 10:19:35;;;;;;;;;;;16.30;99.90;;;;;;5055411;28;20372;-79
2022/03/09 10:22:24;;;;;;;;;;;14.90;99.90;;;;;;5055730;28;19913;-78
2022/03/09 10:24:50;;;;;;;;;;;16.80;99.90;;;;;;5055431;28;19995;-79
2022/03/09 10:27:34;;;;;;;;;;;18.50;99.40;;;;;;5055332;28;19912;-79
2022/03/09 10:30:00;;;;;;;;;;;20.30;95.90;;;;;;5055439;28;19931;-79
2022/03/09 10:33:01;;;;;;;;;;;19.50;95.80;;;;;;5055249;28;20266;-80
2022/03/09 10:35:29;;;;;;;;;;;20.90;93.30;;;;;;5013491;28;19913;-80
2022/03/09 10:37:55;;;;;;;;;;;20.70;92.20;;;;;;5046854;28;19928;-80
2022/03/09 10:40:21;;;;;;;;;;;18.90;92.40;;;;;;5053791;28;19972;-81
2022/03/09 10:42:48;;;;;;;;;;;20.30;91.80;;;;;;5055052;28;20388;-80
2022/03/09 10:45:15;;;;;;;;;;;20.90;90.00;;;;;;5053629;28;20423;-80
2022/03/09 10:47:42;;;;;;;;;;;20.70;88.40;;;;;;5053596;28;19908;-80
2022/03/09 10:50:13;;;;;;;;;;;20.60;88.10;;;;;;5054794;28;19909;-80
2022/03/09 10:52:45;;;;;;;;;;;21.90;83.70;;;;;;5054691;28;19913;-79
2022/03/09 10:55:29;;;;;;;;;;;21.20;84.30;;;;;;5054704;28;19931;-79
2022/03/09 10:58:13;;;;;;;;;;;20.60;86.10;;;;;;5054870;28;20293;-80
2022/03/09 11:00:46;;;;;;;;;;;21.50;85.30;;;;;;5053264;28;19923;-80
2022/03/09 11:03:13;;;;;;;;;;;22.70;83.60;;;;;;5054579;28;20335;-80
2022/03/09 11:06:02;;;;;;;;;;;22.70;81.50;;;;;;5053314;28;20295;-80
2022/03/09 11:08:29;;;;;;;;;;;23.80;78.40;;;;;;5049041;28;19956;-80
2022/03/09 11:10:55;;;;;;;;;;;23.20;78.60;;;;;;5053164;28;19912;-80
2022/03/09 11:13:22;;;;;;;;;;;22.60;77.50;;;;;;5054457;28;20296;-80
2022/03/09 11:15:47;;;;;;;;;;;21.50;82.10;;;;;;5053100;28;20320;-80
2022/03/09 11:18:14;;;;;;;;;;;21.20;81.90;;;;;;5054259;28;19934;-79
2022/03/09 11:20:40;;;;;;;;;;;22.50;79.60;;;;;;5054448;28;19917;-79
2022/03/09 11:23:06;;;;;;;;;;;23.50;74.20;;;;;;5053858;28;19959;-79
2022/03/09 11:25:31;;;;;;;;;;;23.10;73.60;;;;;;5054159;28;19916;-81
2022/03/09 11:27:57;;;;;;;;;;;22.00;73.00;;;;;;5054173;28;19909;-80
2022/03/09 11:30:24;;;;;;;;;;;23.10;76.20;;;;;;5052839;28;19944;-80
2022/03/09 11:32:50;;;;;;;;;;;19.80;78.30;;;;;;5052849;28;19948;-79
2022/03/09 11:35:36;;;;;;;;;;;18.50;84.80;;;;;;5054045;28;19913;-79
2022/03/09 11:38:03;;;;;;;;;;;18.60;85.80;;;;;;5053400;28;19956;-80
2022/03/09 11:40:28;;;;;;;;;;;18.20;86.60;;;;;;5052614;28;20284;-79
2022/03/09 11:42:54;;;;;;;;;;;16.80;88.90;;;;;;5053930;28;19909;-80
2022/03/09 11:45:27;;;;;;;;;;;17.40;90.50;;;;;;5053952;28;19908;-80
2022/03/09 11:48:04;;;;;;;;;;;17.60;90.70;;;;;;5052841;28;20029;-81
2022/03/09 11:50:31;;;;;;;;;;;17.80;91.20;;;;;;5053820;28;19908;-80
2022/03/09 11:52:58;;;;;;;;;;;18.90;89.60;;;;;;5053938;28;19913;-80
2022/03/09 11:55:23;;;;;;;;;;;19.20;85.20;;;;;;5053689;28;19909;-80
2022/03/09 11:57:49;;;;;;;;;;;20.00;84.50;;;;;;5053763;28;19916;-79
2022/03/09 12:00:16;;;;;;;;;;;19.00;83.90;;;;;;5052429;28;19909;-78
2022/03/09 12:02:43;;;;;;;;;;;17.80;88.40;;;;;;5052184;28;20388;-79
2022/03/09 12:05:31;;;;;;;;;;;17.80;89.30;;;;;;5053462;28;19912;-80
2022/03/09 12:08:07;;;;;;;;;;;17.00;90.50;;;;;;5052288;28;19913;-79
2022/03/09 12:10:45;;;;;;;;;;;16.20;91.10;;;;;;5052505;28;19916;-79
2022/03/09 12:13:17;;;;;;;;;;;15.90;91.90;;;;;;5053594;28;20280;-79
2022/03/09 12:15:58;;;;;;;;;;;16.00;93.20;;;;;;5053603;28;19916;-79
2022/03/09 12:18:43;;;;;;;;;;;16.50;93.00;;;;;;5053530;28;19909;-79
2022/03/09 12:21:10;;;;;;;;;;;16.60;91.90;;;;;;5053440;28;19913;-79
2022/03/09 12:23:55;;;;;;;;;;;16.00;92.90;;;;;;5053494;28;20288;-79
2022/03/09 12:26:39;;;;;;;;;;;15.70;93.00;;;;;;5053344;28;19909;-79
2022/03/09 12:29:28;;;;;;;;;;;16.10;93.90;;;;;;5053392;28;20372;-79
2022/03/09 12:32:13;;;;;;;;;;;16.50;92.80;;;;;;5062577;28;19908;-79
2022/03/09 12:34:43;;;;;;;;;;;16.50;92.80;;;;;;5053390;28;19963;-79
2022/03/09 12:37:10;;;;;;;;;;;16.60;92.90;;;;;;5056624;28;19917;-79
2022/03/09 12:39:37;;;;;;;;;;;16.70;92.70;;;;;;5057620;28;19919;-79
2022/03/09 12:42:03;;;;;;;;;;;17.30;91.50;;;;;;5055921;28;20335;-79
2022/03/09 12:44:31;;;;;;;;;;;17.10;90.60;;;;;;5057281;28;19932;-79
2022/03/09 12:47:03;;;;;;;;;;;17.60;90.80;;;;;;5057319;28;19916;-79
2022/03/09 12:49:28;;;;;;;;;;;17.40;90.20;;;;;;5057194;28;19912;-78
2022/03/09 12:51:55;;;;;;;;;;;17.30;90.50;;;;;;5057301;28;19986;-79
2022/03/09 12:54:33;;;;;;;;;;;16.70;90.20;;;;;;5056964;28;19916;-79
2022/03/09 12:57:06;;;;;;;;;;;17.00;90.10;;;;;;5055706;28;19916;-78
2022/03/09 12:59:31;;;;;;;;;;;17.10;90.30;;;;;;5056954;28;19916;-80
2022/03/09 13:01:57;;;;;;;;;;;17.00;89.50;;;;;;5056872;28;19913;-82
2022/03/09 13:04:25;;;;;;;;;;;17.40;90.00;;;;;;5056831;28;19915;-82
2022/03/09 13:06:50;;;;;;;;;;;17.30;88.80;;;;;;5055511;28;20332;-81
2022/03/09 13:09:21;;;;;;;;;;;17.60;87.30;;;;;;5056791;28;19982;-81
2022/03/09 13:11:47;;;;;;;;;;;17.40;87.80;;;;;;5056694;28;20399;-81
2022/03/09 13:14:14;;;;;;;;;;;17.50;87.10;;;;;;5056665;28;19986;-80
2022/03/09 13:16:40;;;;;;;;;;;17.20;86.80;;;;;;5057002;28;19916;-80
2022/03/09 13:19:06;;;;;;;;;;;17.30;86.50;;;;;;5055272;28;20293;-80
2022/03/09 13:21:31;;;;;;;;;;;17.40;86.50;;;;;;5056633;28;19917;-79
2022/03/09 13:23:58;;;;;;;;;;;17.00;85.70;;;;;;5056650;28;19908;-79
2022/03/09 13:26:25;;;;;;;;;;;17.50;85.70;;;;;;5056452;28;19908;-79
2022/03/09 13:28:51;;;;;;;;;;;17.80;84.40;;;;;;5056461;28;19995;-79
2022/03/09 13:31:17;;;;;;;;;;;17.30;85.30;;;;;;5056364;28;19958;-79
2022/03/09 13:33:44;;;;;;;;;;;17.60;85.80;;;;;;5056325;28;19908;-79
2022/03/09 13:36:16;;;;;;;;;;;17.80;85.20;;;;;;5034764;28;19909;-79
2022/03/09 13:38:55;;;;;;;;;;;17.00;84.10;;;;;;5035651;28;19921;-79
2022/03/09 13:41:21;;;;;;;;;;;16.40;85.50;;;;;;5053853;28;20381;-78
2022/03/09 13:43:47;;;;;;;;;;;16.00;87.20;;;;;;5054239;28;19915;-79
2022/03/09 13:46:14;;;;;;;;;;;16.20;87.80;;;;;;5055314;28;19909;-78
2022/03/09 13:48:39;;;;;;;;;;;16.50;88.50;;;;;;5055662;28;19916;-79
2022/03/09 13:51:05;;;;;;;;;;;16.40;89.10;;;;;;5038665;28;20297;-79
2022/03/09 13:53:36;;;;;;;;;;;16.10;90.20;;;;;;5034256;28;19916;-78
2022/03/09 13:56:05;;;;;;;;;;;15.70;88.60;;;;;;5034106;28;19909;-78
2022/03/09 13:58:38;;;;;;;;;;;15.70;89.50;;;;;;5034351;28;20039;-78
2022/03/09 14:01:05;;;;;;;;;;;15.60;89.20;;;;;;5051028;28;19913;-79
2022/03/09 14:03:38;;;;;;;;;;;15.80;90.20;;;;;;5055427;28;19916;-78
2022/03/09 14:06:11;;;;;;;;;;;15.40;89.60;;;;;;5055557;28;20292;-78
2022/03/09 14:08:36;;;;;;;;;;;15.60;89.60;;;;;;5055371;28;19913;-78
2022/03/09 14:11:13;;;;;;;;;;;15.70;90.00;;;;;;5055010;28;19916;-78
2022/03/09 14:13:56;;;;;;;;;;;15.60;90.40;;;;;;5055255;28;19912;-78
2022/03/09 14:16:23;;;;;;;;;;;15.70;90.30;;;;;;5043026;28;19916;-79
2022/03/09 14:18:48;;;;;;;;;;;15.80;90.20;;;;;;5035068;28;19932;-78
2022/03/09 14:21:14;;;;;;;;;;;15.60;90.50;;;;;;5034634;28;20381;-79
2022/03/09 14:23:40;;;;;;;;;;;15.80;90.60;;;;;;5034995;28;19909;-78
2022/03/09 14:26:05;;;;;;;;;;;15.80;90.20;;;;;;5035169;28;19909;-79
2022/03/09 14:28:32;;;;;;;;;;;15.80;90.00;;;;;;5034989;28;19932;-79
2022/03/09 14:30:58;;;;;;;;;;;16.70;88.60;;;;;;5034538;28;19912;-79
2022/03/09 14:33:23;;;;;;;;;;;17.50;85.30;;;;;;5034962;28;20336;-78
2022/03/09 14:35:49;;;;;;;;;;;17.10;84.10;;;;;;5034831;28;19916;-78
2022/03/09 14:38:15;;;;;;;;;;;17.40;84.90;;;;;;5034697;28;20003;-78
2022/03/09 14:40:41;;;;;;;;;;;17.30;84.50;;;;;;5034289;28;19956;-78
2022/03/09 14:43:06;;;;;;;;;;;16.90;84.90;;;;;;5034567;28;20289;-78